Time;durP1;ratioP1;P1;durP2;ratioP2;P2;SDS_P1;SDS_P2;PMS_P1;PMS_P2;Temp;Humidity;BMP_temperature;BMP_pressure;BME280_temperature;BME280_humidity;BME280_pressure;Samples;Min_cycle;Max_cycle;Signal;HPM_P1;HPM_P2
2023/01/26 00:01:44;;;;;;;34.70;31.60;;;;;;;-0.42;88.89;98528.27;108884;1282;22325;-83
2023/01/26 00:04:11;;;;;;;36.00;32.90;;;;;;;-0.38;88.80;98525.07;108684;1297;22265;-83
2023/01/26 00:06:39;;;;;;;33.10;30.20;;;;;;;-0.38;89.01;98526.45;108672;1297;23001;-83
2023/01/26 00:09:13;;;;;;;33.30;30.50;;;;;;;-0.40;89.03;98523.41;108889;1297;22236;-82
2023/01/26 00:11:41;;;;;;;35.50;32.50;;;;;;;-0.42;89.16;98518.13;108882;1297;22234;-83
2023/01/26 00:14:09;;;;;;;35.10;32.00;;;;;;;-0.41;89.04;98516.08;108869;1297;22154;-83
2023/01/26 00:16:38;;;;;;;31.40;28.50;;;;;;;-0.41;89.12;98511.16;108842;1297;22226;-83
2023/01/26 00:19:06;;;;;;;31.30;28.50;;;;;;;-0.42;88.92;98511.23;108844;1297;22334;-83
2023/01/26 00:21:34;;;;;;;31.70;28.70;;;;;;;-0.38;89.10;98509.19;108662;1297;23076;-83
2023/01/26 00:24:03;;;;;;;33.50;30.50;;;;;;;-0.35;89.22;98507.40;108885;1297;22238;-83
2023/01/26 00:26:31;;;;;;;32.70;29.70;;;;;;;-0.28;89.03;98505.77;108571;1297;22212;-83
2023/01/26 00:29:00;;;;;;;34.60;31.50;;;;;;;-0.27;89.09;98505.45;108873;1297;22656;-83
2023/01/26 00:31:28;;;;;;;36.00;32.60;;;;;;;-0.32;88.93;98500.71;108834;1297;22210;-82
2023/01/26 00:33:56;;;;;;;37.90;34.60;;;;;;;-0.41;89.01;98501.78;108838;1297;22981;-83
2023/01/26 00:36:24;;;;;;;32.60;29.70;;;;;;;-0.46;88.98;98492.23;108854;1297;22619;-83
2023/01/26 00:38:52;;;;;;;33.90;30.80;;;;;;;-0.49;89.03;98486.60;108859;1297;22244;-84
2023/01/26 00:44:08;;;;;;;36.80;33.50;;;;;;;-0.39;89.20;98477.08;108854;1297;23001;-85
2023/01/26 00:46:37;;;;;;;39.80;36.20;;;;;;;-0.37;89.31;98477.83;108837;1297;22231;-84
2023/01/26 00:49:06;;;;;;;37.20;34.00;;;;;;;-0.38;89.33;98475.58;108874;1297;22309;-84
2023/01/26 00:51:34;;;;;;;41.60;38.20;;;;;;;-0.38;89.38;98476.99;108855;1297;23004;-83
2023/01/26 00:54:04;;;;;;;39.30;35.80;;;;;;;-0.38;89.46;98479.67;108881;1297;22231;-85
2023/01/26 00:56:32;;;;;;;36.60;33.10;;;;;;;-0.38;89.31;98476.84;108788;1297;22255;-85
2023/01/26 00:59:00;;;;;;;35.60;32.30;;;;;;;-0.36;89.17;98476.02;108849;1297;22250;-84
2023/01/26 01:01:28;;;;;;;37.30;33.90;;;;;;;-0.34;89.13;98473.48;108843;1297;22234;-83
2023/01/26 01:03:56;;;;;;;39.50;36.00;;;;;;;-0.33;89.32;98469.88;108885;1297;22276;-82
2023/01/26 01:06:23;;;;;;;37.40;34.00;;;;;;;-0.28;89.37;98471.03;108852;1297;22937;-84
2023/01/26 01:08:52;;;;;;;38.10;34.80;;;;;;;-0.28;89.34;98469.55;108868;1289;22226;-85
2023/01/26 01:11:20;;;;;;;40.80;37.10;;;;;;;-0.28;89.56;98466.84;108876;1297;23139;-83
2023/01/26 01:13:48;;;;;;;39.00;35.30;;;;;;;-0.29;89.44;98460.40;108872;1297;22224;-83
2023/01/26 01:16:16;;;;;;;42.10;38.30;;;;;;;-0.36;89.01;98454.88;108847;1297;22142;-84
2023/01/26 01:18:45;;;;;;;38.20;34.50;;;;;;;-0.43;89.01;98455.08;108672;1297;22258;-84
2023/01/26 01:21:16;;;;;;;34.70;31.50;;;;;;;-0.45;89.22;98452.20;108875;1297;22233;-83
2023/01/26 01:23:43;;;;;;;35.50;32.30;;;;;;;-0.47;89.12;98452.08;108682;1297;22270;-84
2023/01/26 01:26:13;;;;;;;36.00;32.70;;;;;;;-0.52;89.11;98449.65;108847;1297;22713;-83
2023/01/26 01:28:42;;;;;;;37.60;34.50;;;;;;;-0.60;89.24;98451.80;108880;1297;22936;-83
2023/01/26 01:31:13;;;;;;;35.30;32.00;;;;;;;-0.64;89.28;98451.09;108882;1297;22188;-83
2023/01/26 01:33:42;;;;;;;34.40;31.30;;;;;;;-0.68;89.24;98447.45;108894;1297;22195;-83
2023/01/26 01:36:13;;;;;;;33.70;30.70;;;;;;;-0.65;89.31;98442.26;108860;1297;22127;-83
2023/01/26 01:38:42;;;;;;;35.70;32.50;;;;;;;-0.63;89.40;98442.38;108841;1297;22237;-83
2023/01/26 01:41:13;;;;;;;34.50;31.50;;;;;;;-0.63;89.55;98442.59;108876;1297;22166;-84
2023/01/26 01:43:41;;;;;;;35.60;32.20;;;;;;;-0.62;89.60;98442.89;108879;1297;22181;-84
2023/01/26 01:46:16;;;;;;;36.50;33.30;;;;;;;-0.58;89.57;98439.75;108683;1297;22183;-84
2023/01/26 01:49:13;;;;;;;32.00;29.10;;;;;;;-0.59;89.45;98439.26;108874;1297;22178;-83
2023/01/26 01:51:45;;;;;;;33.30;30.40;;;;;;;-0.61;89.14;98439.59;108848;1297;22228;-83
2023/01/26 01:54:18;;;;;;;36.00;32.90;;;;;;;-0.60;89.38;98436.45;108849;1297;22983;-84
2023/01/26 01:56:51;;;;;;;34.40;31.10;;;;;;;-0.56;89.59;98438.91;108835;1297;23068;-83
2023/01/26 01:59:20;;;;;;;37.40;34.30;;;;;;;-0.55;89.45;98443.77;108820;1297;22206;-83
2023/01/26 02:01:50;;;;;;;36.90;33.60;;;;;;;-0.59;89.34;98448.30;108835;1297;22198;-83
2023/01/26 02:04:21;;;;;;;37.50;34.10;;;;;;;-0.62;89.30;98447.30;108663;1297;22223;-84
2023/01/26 02:06:52;;;;;;;37.40;34.10;;;;;;;-0.64;89.24;98439.58;108858;1297;22225;-84
2023/01/26 02:12:20;;;;;;;34.00;30.90;;;;;;;-0.75;89.01;98433.24;108624;1297;22184;-83
2023/01/26 02:14:51;;;;;;;34.70;31.40;;;;;;;-0.69;89.28;98435.77;108866;1282;22247;-84
2023/01/26 02:17:21;;;;;;;34.60;31.60;;;;;;;-0.64;89.67;98430.09;108867;1297;22223;-83
2023/01/26 02:19:58;;;;;;;35.50;32.20;;;;;;;-0.57;89.81;98434.48;108838;1297;22277;-83
2023/01/26 02:22:58;;;;;;;36.30;32.80;;;;;;;-0.53;89.78;98432.09;108847;1297;22143;-83
2023/01/26 02:25:38;;;;;;;36.20;33.10;;;;;;;-0.53;89.37;98432.09;108077;1297;22289;-83
2023/01/26 02:28:07;;;;;;;35.80;32.50;;;;;;;-0.54;89.50;98429.10;108865;1297;22177;-83
2023/01/26 02:30:35;;;;;;;34.60;31.60;;;;;;;-0.54;89.20;98432.25;108837;1297;22250;-83
2023/01/26 02:33:03;;;;;;;33.90;30.80;;;;;;;-0.54;89.16;98422.45;108685;1297;23102;-84
2023/01/26 02:35:33;;;;;;;36.20;32.80;;;;;;;-0.56;89.13;98424.84;108858;1297;22292;-84
2023/01/26 02:38:02;;;;;;;37.10;33.80;;;;;;;-0.59;89.31;98423.42;108877;1297;22935;-85
2023/01/26 02:40:42;;;;;;;39.30;35.60;;;;;;;-0.57;89.58;98420.48;108915;1297;22943;-84
2023/01/26 02:43:10;;;;;;;38.90;35.40;;;;;;;-0.57;89.63;98413.42;108685;1297;22167;-85
2023/01/26 02:45:39;;;;;;;34.30;31.20;;;;;;;-0.57;89.33;98412.45;108857;1297;22239;-84
2023/01/26 02:48:07;;;;;;;37.30;33.90;;;;;;;-0.57;89.38;98407.16;108854;1297;22237;-84
2023/01/26 02:50:35;;;;;;;34.60;31.50;;;;;;;-0.51;89.56;98404.83;108858;1297;22252;-85
2023/01/26 02:53:03;;;;;;;36.40;33.30;;;;;;;-0.45;89.41;98398.15;108853;1297;22244;-85
2023/01/26 02:55:31;;;;;;;36.00;32.60;;;;;;;-0.42;89.16;98398.38;108834;1297;22292;-84
2023/01/26 02:58:02;;;;;;;35.10;31.90;;;;;;;-0.47;89.22;98393.44;108866;1297;22160;-85
2023/01/26 03:00:39;;;;;;;38.60;35.20;;;;;;;-0.50;89.14;98388.34;108876;1297;22237;-84
2023/01/26 03:03:17;;;;;;;36.80;33.50;;;;;;;-0.55;89.18;98386.98;108881;1297;22253;-84
2023/01/26 03:05:46;;;;;;;37.20;33.80;;;;;;;-0.62;88.97;98382.67;108861;1297;22229;-83
2023/01/26 03:08:14;;;;;;;31.70;28.70;;;;;;;-0.67;88.89;98379.58;108829;1297;22217;-84
2023/01/26 03:10:46;;;;;;;35.40;32.30;;;;;;;-0.71;88.94;98377.65;108858;1297;22960;-83
2023/01/26 03:13:14;;;;;;;36.20;32.90;;;;;;;-0.70;89.13;98382.86;108831;1297;22308;-84
2023/01/26 03:15:51;;;;;;;35.40;32.20;;;;;;;-0.73;89.12;98378.76;108857;1297;22328;-83
2023/01/26 03:27:26;;;;;;;33.70;30.80;;;;;;;-0.83;89.13;98376.91;109255;1297;22362;-83
2023/01/26 03:29:57;;;;;;;35.40;32.30;;;;;;;-0.83;88.94;98375.73;108966;1297;23125;-84
2023/01/26 03:32:25;;;;;;;39.30;35.90;;;;;;;-0.86;88.94;98374.83;109023;1297;22981;-82
2023/01/26 03:34:54;;;;;;;41.20;37.60;;;;;;;-0.87;89.15;98373.89;108823;1297;22289;-83
2023/01/26 03:37:23;;;;;;;36.10;32.80;;;;;;;-0.90;89.08;98370.25;108832;1297;22945;-83
2023/01/26 03:56:39;;;;;;;33.10;30.00;;;;;;;-1.16;88.82;98365.15;108682;1297;22287;-83
2023/01/26 03:59:14;;;;;;;30.30;27.60;;;;;;;-1.16;88.71;98367.30;108880;1297;22155;-83
2023/01/26 04:10:10;;;;;;;33.70;30.70;;;;;;;-1.04;88.48;98351.61;108974;1297;22235;-85
2023/01/26 04:12:41;;;;;;;36.50;33.20;;;;;;;-1.06;88.85;98351.46;109045;1297;22285;-81
2023/01/26 04:23:44;;;;;;;36.10;33.00;;;;;;;-1.07;88.60;98354.80;109331;1297;22155;-85
2023/01/26 04:26:12;;;;;;;35.60;32.50;;;;;;;-1.06;88.63;98348.83;109148;1297;22193;-84
2023/01/26 04:28:41;;;;;;;37.50;34.00;;;;;;;-1.06;88.84;98348.61;108990;1297;22772;-86
2023/01/26 04:31:09;;;;;;;33.50;30.40;;;;;;;-1.05;88.90;98350.91;108952;1297;22927;-85
2023/01/26 04:33:38;;;;;;;31.40;28.60;;;;;;;-1.00;88.77;98344.71;108850;1297;22240;-86
2023/01/26 04:36:08;;;;;;;30.40;27.60;;;;;;;-0.98;88.39;98345.14;108894;1297;22139;-85
2023/01/26 04:38:40;;;;;;;32.00;29.10;;;;;;;-0.98;88.45;98341.56;108672;1297;22135;-85
2023/01/26 04:41:08;;;;;;;35.10;31.90;;;;;;;-1.01;88.21;98324.90;108817;1297;22174;-84
2023/01/26 04:43:42;;;;;;;;;;;;;;;-1.04;88.63;98317.99;108687;1297;22426;-83
2023/01/26 04:46:10;;;;;;;32.30;29.40;;;;;;;-1.06;88.43;98318.63;108805;1297;22911;-84
2023/01/26 04:48:39;;;;;;;35.80;32.60;;;;;;;-1.06;88.48;98313.62;108800;1297;22121;-85
2023/01/26 04:51:16;;;;;;;36.80;33.50;;;;;;;-1.08;88.45;98311.34;108674;1297;22276;-86
2023/01/26 04:53:45;;;;;;;37.40;33.80;;;;;;;-1.09;88.52;98310.95;108809;1297;22236;-86
2023/01/26 04:56:29;;;;;;;34.90;31.50;;;;;;;-1.07;88.57;98308.20;108704;1297;22279;-84
2023/01/26 04:59:01;;;;;;;34.70;31.40;;;;;;;-1.04;88.38;98299.20;108882;1297;22216;-84
2023/01/26 05:01:31;;;;;;;36.30;33.10;;;;;;;-1.00;88.29;98299.95;108837;1297;22193;-84
2023/01/26 05:04:00;;;;;;;35.70;32.50;;;;;;;-0.97;88.49;98300.85;108881;1297;22302;-84
2023/01/26 05:06:30;;;;;;;38.50;35.00;;;;;;;-0.97;88.45;98296.30;108892;1294;22213;-85
2023/01/26 05:08:58;;;;;;;38.70;35.20;;;;;;;-0.96;88.70;98294.55;108699;1297;23156;-84
2023/01/26 05:11:27;;;;;;;38.10;34.70;;;;;;;-0.94;88.82;98294.58;108877;1297;22887;-85
2023/01/26 05:14:14;;;;;;;35.10;31.70;;;;;;;-0.92;88.71;98296.70;108881;1297;22224;-85
2023/01/26 05:17:08;;;;;;;34.70;31.60;;;;;;;-0.88;88.46;98301.16;108774;1297;22139;-85
2023/01/26 05:19:39;;;;;;;37.60;34.30;;;;;;;-0.86;88.48;98298.58;108885;1297;22226;-85
2023/01/26 05:22:13;;;;;;;36.10;33.00;;;;;;;-0.81;88.65;98295.70;108873;1297;22168;-82
2023/01/26 05:24:53;;;;;;;35.10;32.00;;;;;;;-0.78;88.68;98294.48;108807;1297;22241;-85
2023/01/26 05:27:36;;;;;;;33.90;30.60;;;;;;;-0.75;88.70;98296.27;108697;1295;23097;-86
2023/01/26 05:30:04;;;;;;;37.00;33.70;;;;;;;-0.76;88.41;98291.64;108921;1297;22274;-85
2023/01/26 05:32:35;;;;;;;33.20;30.30;;;;;;;-0.79;88.43;98290.96;108699;1292;22334;-85
2023/01/26 05:35:05;;;;;;;33.40;30.50;;;;;;;-0.82;88.42;98289.20;108852;1297;23114;-86
2023/01/26 05:37:33;;;;;;;44.40;40.60;;;;;;;-0.79;88.68;98285.58;108800;1297;22207;-85
2023/01/26 05:40:01;;;;;;;37.90;34.50;;;;;;;-0.72;88.48;98289.96;108791;1297;22272;-85
2023/01/26 05:42:29;;;;;;;38.00;34.40;;;;;;;-0.69;88.64;98289.65;108711;1297;22437;-85
2023/01/26 05:45:06;;;;;;;44.50;40.50;;;;;;;-0.70;88.65;98295.08;108814;1297;22249;-85
2023/01/26 05:47:36;;;;;;;37.50;33.70;;;;;;;-0.71;88.52;98292.80;108801;1297;23052;-86
2023/01/26 05:50:05;;;;;;;38.50;35.20;;;;;;;-0.76;88.55;98289.87;108799;1297;23478;-86
2023/01/26 05:52:34;;;;;;;35.20;32.00;;;;;;;-0.81;88.48;98291.71;108790;1297;23155;-85
2023/01/26 05:55:03;;;;;;;33.60;30.50;;;;;;;-0.82;88.50;98290.63;108852;1297;22257;-85
2023/01/26 05:57:32;;;;;;;34.10;31.00;;;;;;;-0.78;88.48;98294.37;108810;1297;22232;-87
2023/01/26 06:00:05;;;;;;;35.80;32.70;;;;;;;-0.72;88.71;98296.96;108713;1297;22251;-86
2023/01/26 06:02:40;;;;;;;34.60;31.30;;;;;;;-0.66;88.80;98291.79;108871;1297;22132;-84
2023/01/26 06:05:11;;;;;;;38.70;35.20;;;;;;;-0.65;88.72;98291.04;108806;1297;22219;-86
2023/01/26 06:07:42;;;;;;;38.20;34.70;;;;;;;-0.64;88.63;98293.73;108683;1297;22944;-85
2023/01/26 06:10:21;;;;;;;36.50;33.20;;;;;;;-0.65;88.83;98290.92;108672;1297;22914;-84
2023/01/26 06:13:04;;;;;;;36.20;33.00;;;;;;;-0.64;88.68;98293.80;108842;1297;22250;-85
2023/01/26 06:15:47;;;;;;;35.60;32.30;;;;;;;-0.66;88.63;98292.60;108572;1297;22274;-84
2023/01/26 06:18:15;;;;;;;34.10;31.00;;;;;;;-0.64;88.71;98290.27;108808;1297;23021;-85
2023/01/26 06:20:48;;;;;;;35.40;32.30;;;;;;;-0.60;88.56;98287.86;108845;1297;22300;-83
2023/01/26 06:23:18;;;;;;;36.40;33.30;;;;;;;-0.58;88.39;98284.64;108816;1297;22252;-84
2023/01/26 06:25:46;;;;;;;35.40;32.20;;;;;;;-0.57;88.80;98286.41;108692;1297;22238;-82
2023/01/26 06:28:14;;;;;;;36.90;33.50;;;;;;;-0.53;88.92;98285.16;108700;1297;22680;-86
2023/01/26 06:30:43;;;;;;;35.60;32.30;;;;;;;-0.50;89.00;98283.38;108689;1297;22223;-85
2023/01/26 06:33:12;;;;;;;37.70;34.40;;;;;;;-0.47;88.88;98285.67;108818;1297;22288;-85
2023/01/26 06:35:40;;;;;;;35.10;31.90;;;;;;;-0.47;88.89;98284.51;108855;1292;22917;-84
2023/01/26 06:38:11;;;;;;;31.50;28.60;;;;;;;-0.46;88.45;98284.27;108711;1297;22881;-84
2023/01/26 06:40:39;;;;;;;32.50;29.70;;;;;;;-0.48;88.19;98281.41;108694;1297;22875;-85
2023/01/26 06:43:07;;;;;;;34.70;31.50;;;;;;;-0.52;88.37;98279.12;108810;1297;22367;-84
2023/01/26 06:45:36;;;;;;;36.00;32.90;;;;;;;-0.54;88.35;98280.65;108825;1297;22277;-86
2023/01/26 06:48:03;;;;;;;35.20;32.10;;;;;;;-0.57;88.54;98277.21;108777;1297;22845;-84
2023/01/26 06:50:34;;;;;;;39.40;36.00;;;;;;;-0.57;88.83;98280.18;108838;1297;22293;-85
2023/01/26 06:53:24;;;;;;;40.60;37.00;;;;;;;-0.57;88.74;98271.80;108832;1297;22200;-84
2023/01/26 06:56:05;;;;;;;35.00;31.60;;;;;;;-0.53;88.82;98269.92;108846;1297;22259;-84
2023/01/26 06:58:36;;;;;;;34.90;31.70;;;;;;;-0.44;88.85;98271.52;108843;1297;23062;-83
2023/01/26 07:01:25;;;;;;;45.50;41.30;;;;;;;-0.34;88.63;98271.23;108686;1297;22195;-81
2023/01/26 07:03:54;;;;;;;40.30;36.50;;;;;;;-0.31;88.56;98267.45;108869;1297;22190;-82
2023/01/26 07:06:22;;;;;;;51.10;46.40;;;;;;;-0.30;88.72;98270.03;108859;1297;22246;-82
2023/01/26 07:08:50;;;;;;;54.10;48.90;;;;;;;-0.31;88.61;98272.98;108784;1295;22252;-82
2023/01/26 07:11:19;;;;;;;58.70;53.10;;;;;;;-0.30;88.90;98272.30;108833;1297;22257;-83
2023/01/26 07:13:47;;;;;;;53.50;48.50;;;;;;;-0.31;88.63;98271.07;108846;1297;22261;-82
2023/01/26 07:16:17;;;;;;;43.60;39.50;;;;;;;-0.38;88.40;98274.27;108684;1297;22274;-81
2023/01/26 07:18:45;;;;;;;41.90;38.10;;;;;;;-0.43;88.23;98267.52;108843;1297;22153;-81
2023/01/26 07:21:17;;;;;;;39.40;35.70;;;;;;;-0.43;88.31;98265.77;108846;1297;22271;-81
2023/01/26 07:23:45;;;;;;;41.10;37.60;;;;;;;-0.40;88.45;98263.86;108844;1297;22229;-81
2023/01/26 07:26:14;;;;;;;49.00;44.60;;;;;;;-0.41;88.46;98262.04;108849;1297;23142;-81
2023/01/26 07:28:42;;;;;;;61.10;55.30;;;;;;;-0.43;88.30;98266.30;108870;1297;22189;-81
2023/01/26 07:31:11;;;;;;;64.40;58.10;;;;;;;-0.48;88.35;98268.98;108852;1297;23170;-82
2023/01/26 07:33:39;;;;;;;44.20;40.10;;;;;;;-0.47;88.57;98268.33;108853;1298;22187;-82
2023/01/26 07:36:09;;;;;;;42.30;38.50;;;;;;;-0.45;88.30;98266.40;108858;1297;22265;-82
2023/01/26 07:38:37;;;;;;;44.80;41.00;;;;;;;-0.45;88.34;98262.06;108824;1297;22240;-82
2023/01/26 07:41:11;;;;;;;46.30;42.20;;;;;;;-0.43;88.37;98258.52;108853;1297;22260;-82
2023/01/26 07:43:40;;;;;;;41.80;38.10;;;;;;;-0.41;88.65;98261.75;108859;1297;22882;-82
2023/01/26 07:46:11;;;;;;;46.60;42.20;;;;;;;-0.40;88.65;98264.02;108859;1297;22221;-82
2023/01/26 07:48:40;;;;;;;48.30;44.10;;;;;;;-0.41;88.55;98265.79;108788;1297;22242;-82
2023/01/26 07:51:09;;;;;;;49.80;45.40;;;;;;;-0.43;88.24;98267.52;108832;1297;22227;-82
2023/01/26 07:53:38;;;;;;;42.50;38.30;;;;;;;-0.45;88.28;98275.68;108843;1286;22245;-83
2023/01/26 07:56:14;;;;;;;39.70;36.20;;;;;;;-0.40;88.40;98272.73;108888;1297;22877;-83
2023/01/26 07:58:42;;;;;;;48.90;44.10;;;;;;;-0.34;88.48;98269.70;108931;1297;22228;-83
2023/01/26 08:01:13;;;;;;;49.30;44.40;;;;;;;-0.33;88.50;98264.11;108988;1297;22263;-83
2023/01/26 08:03:41;;;;;;;60.90;55.10;;;;;;;-0.33;88.44;98261.42;108927;1297;22915;-83
2023/01/26 08:06:09;;;;;;;56.70;51.30;;;;;;;-0.32;88.70;98263.38;108883;1297;22201;-84
2023/01/26 08:08:40;;;;;;;53.40;48.60;;;;;;;-0.27;88.73;98260.11;108908;1297;22246;-83
2023/01/26 08:11:10;;;;;;;55.50;50.40;;;;;;;-0.27;88.54;98262.49;108858;1297;22885;-83
2023/01/26 08:13:38;;;;;;;48.70;44.20;;;;;;;-0.26;88.34;98259.56;108690;1297;22159;-84
2023/01/26 08:16:10;;;;;;;45.80;41.50;;;;;;;-0.24;88.49;98260.89;108695;1297;22248;-83
2023/01/26 08:18:41;;;;;;;41.10;37.00;;;;;;;-0.21;88.10;98257.10;108705;1295;22284;-82
2023/01/26 08:21:11;;;;;;;44.10;40.00;;;;;;;-0.23;88.26;98256.63;108701;1295;22253;-82
2023/01/26 08:23:40;;;;;;;48.50;44.30;;;;;;;-0.25;88.39;98257.11;108849;1297;22158;-82
2023/01/26 08:26:11;;;;;;;52.70;47.60;;;;;;;-0.25;88.40;98254.14;108809;1297;22282;-82
2023/01/26 08:28:40;;;;;;;52.60;47.80;;;;;;;-0.29;88.24;98255.89;108699;1298;22156;-83
2023/01/26 08:31:19;;;;;;;54.80;49.40;;;;;;;-0.32;88.36;98262.56;108701;1297;22149;-83
2023/01/26 08:33:49;;;;;;;50.20;45.30;;;;;;;-0.32;88.20;98260.61;108851;1297;22131;-83
2023/01/26 08:36:18;;;;;;;49.30;44.70;;;;;;;-0.31;88.21;98258.20;108841;1297;22252;-83
2023/01/26 08:38:50;;;;;;;49.20;44.20;;;;;;;-0.27;88.28;98257.30;108849;1297;22243;-83
2023/01/26 08:41:18;;;;;;;47.20;42.90;;;;;;;-0.25;88.20;98261.66;108691;1297;22184;-83
2023/01/26 08:43:46;;;;;;;50.70;46.00;;;;;;;-0.22;88.41;98260.63;108847;1297;22232;-83
2023/01/26 08:46:14;;;;;;;51.00;46.40;;;;;;;-0.12;88.63;98260.34;108852;1297;22246;-80
2023/01/26 08:48:42;;;;;;;50.70;46.10;;;;;;;-0.06;88.66;98260.20;108846;1297;22204;-82
2023/01/26 08:51:10;;;;;;;49.10;44.40;;;;;;;-0.04;88.57;98260.10;108869;1273;22266;-81
2023/01/26 08:53:38;;;;;;;49.90;44.80;;;;;;;-0.03;88.53;98261.19;108878;1297;22297;-82
2023/01/26 08:56:09;;;;;;;44.70;40.80;;;;;;;0.01;88.44;98256.73;108858;1297;22988;-84
2023/01/26 08:58:37;;;;;;;42.70;38.90;;;;;;;0.01;88.11;98261.83;108810;1297;22976;-82
2023/01/26 09:01:09;;;;;;;41.70;38.00;;;;;;;-0.01;88.10;98261.50;108827;1297;22890;-80
2023/01/26 09:03:38;;;;;;;44.00;40.00;;;;;;;-0.01;88.00;98260.50;108837;1297;22822;-82
2023/01/26 09:06:08;;;;;;;47.50;43.10;;;;;;;-0.03;88.14;98263.68;108616;1289;22306;-82
2023/01/26 09:08:36;;;;;;;52.20;47.40;;;;;;;-0.04;88.07;98265.39;108605;1289;23554;-82
2023/01/26 09:11:06;;;;;;;48.80;43.90;;;;;;;-0.07;87.90;98266.73;108823;1297;22214;-82
2023/01/26 09:13:36;;;;;;;49.90;45.60;;;;;;;-0.12;87.92;98267.61;108762;1297;23091;-82
2023/01/26 09:16:06;;;;;;;48.80;44.20;;;;;;;-0.14;87.89;98268.07;108751;1297;22217;-82
2023/01/26 09:18:34;;;;;;;46.10;41.90;;;;;;;-0.15;87.85;98262.75;108727;1298;22233;-81
2023/01/26 09:21:06;;;;;;;44.50;40.40;;;;;;;-0.13;87.95;98262.69;108520;1298;23004;-81
2023/01/26 09:23:35;;;;;;;44.00;39.90;;;;;;;-0.11;87.93;98262.14;108640;1297;22286;-82
2023/01/26 09:26:03;;;;;;;47.00;40.40;;;;;;;-0.09;87.99;98261.29;108750;1298;22216;-82
2023/01/26 09:28:31;;;;;;;44.80;40.90;;;;;;;-0.08;88.15;98263.95;108767;1298;22384;-82
2023/01/26 09:31:10;;;;;;;66.80;60.70;;;;;;;-0.07;88.21;98262.30;108763;1297;22313;-82
2023/01/26 09:33:39;;;;;;;58.10;52.70;;;;;;;-0.03;88.31;98263.52;108621;1298;22376;-82
2023/01/26 09:36:09;;;;;;;51.00;46.30;;;;;;;-0.02;88.35;98258.41;108743;1298;22158;-83
2023/01/26 09:38:39;;;;;;;50.10;45.00;;;;;;;-0.01;88.05;98255.61;108548;1298;22863;-81
2023/01/26 09:41:10;;;;;;;47.80;43.60;;;;;;;0.04;88.00;98253.28;108652;1298;22239;-81
2023/01/26 09:43:46;;;;;;;43.80;39.50;;;;;;;0.10;87.83;98246.23;108777;1297;23019;-85
2023/01/26 09:46:24;;;;;;;43.80;40.00;;;;;;;0.16;87.79;98236.06;108562;1286;22294;-82
2023/01/26 09:49:09;;;;;;;43.90;39.80;;;;;;;0.16;87.86;98230.88;108711;1295;22960;-82
2023/01/26 09:52:03;;;;;;;49.10;44.60;;;;;;;0.17;88.03;98230.38;108898;1296;22940;-82
2023/01/26 09:54:37;;;;;;;49.70;45.10;;;;;;;0.15;87.82;98224.13;109395;1296;22082;-81
2023/01/26 09:57:18;;;;;;;45.60;41.40;;;;;;;0.11;87.38;98215.69;109550;1296;22140;-83
2023/01/26 09:59:57;;;;;;;45.30;41.00;;;;;;;0.09;87.45;98210.38;109494;1296;22390;-80
2023/01/26 10:03:07;;;;;;;44.90;40.80;;;;;;;0.10;87.27;98214.45;108793;1296;22251;-83
2023/01/26 10:05:49;;;;;;;44.00;40.10;;;;;;;0.12;87.45;98213.11;109021;1296;22231;-82
2023/01/26 10:08:39;;;;;;;46.20;42.00;;;;;;;0.14;87.57;98218.73;109011;1296;22876;-82
2023/01/26 10:11:27;;;;;;;48.40;44.10;;;;;;;0.12;87.44;98217.30;109039;1296;22211;-82
2023/01/26 10:14:02;;;;;;;51.80;47.30;;;;;;;0.13;87.32;98218.07;108958;1296;22239;-81
2023/01/26 10:16:32;;;;;;;50.70;45.90;;;;;;;0.10;87.17;98212.94;108968;1296;22944;-81
2023/01/26 10:19:11;;;;;;;51.00;46.20;;;;;;;0.08;87.22;98211.25;108952;1283;22244;-81
2023/01/26 10:21:46;;;;;;;47.90;43.50;;;;;;;0.14;87.45;98204.37;108965;1296;22267;-82
2023/01/26 10:24:19;;;;;;;45.60;41.50;;;;;;;0.23;87.39;98202.98;108988;1296;22227;-82
2023/01/26 10:26:48;;;;;;;44.60;40.70;;;;;;;0.33;87.34;98202.33;108780;1296;22863;-82
2023/01/26 10:29:16;;;;;;;42.30;38.50;;;;;;;0.37;87.31;98202.19;108974;1296;22301;-82
2023/01/26 10:31:44;;;;;;;42.50;38.70;;;;;;;0.40;87.42;98204.30;108962;1289;22296;-83
2023/01/26 10:34:16;;;;;;;43.50;39.70;;;;;;;0.42;87.51;98205.33;108961;1289;22245;-82
2023/01/26 10:36:45;;;;;;;44.30;40.30;;;;;;;0.43;87.29;98202.02;108966;1296;22264;-81
2023/01/26 10:39:16;;;;;;;42.40;38.30;;;;;;;0.43;87.13;98200.91;108980;1289;22229;-82
2023/01/26 10:42:00;;;;;;;38.50;34.80;;;;;;;0.46;87.01;98198.42;108998;1296;22228;-82
2023/01/26 10:44:38;;;;;;;41.00;36.90;;;;;;;0.47;86.78;98189.52;108844;1296;22207;-83
2023/01/26 10:47:13;;;;;;;40.90;37.20;;;;;;;0.47;86.71;98189.85;108979;1295;22237;-81
2023/01/26 10:49:42;;;;;;;44.20;40.00;;;;;;;0.49;86.78;98183.02;108932;1296;22539;-81
2023/01/26 10:52:16;;;;;;;44.10;40.00;;;;;;;0.51;87.01;98178.36;108974;1296;22228;-85
2023/01/26 10:54:45;;;;;;;46.80;42.30;;;;;;;0.55;86.85;98179.77;108954;1295;22876;-81
2023/01/26 10:57:29;;;;;;;42.90;38.90;;;;;;;0.54;86.70;98177.35;108943;1295;22228;-82
2023/01/26 11:00:06;;;;;;;46.10;41.60;;;;;;;0.52;86.51;98176.89;108784;1296;22090;-81
2023/01/26 11:02:35;;;;;;;48.60;44.10;;;;;;;0.49;86.48;98176.81;108937;1296;22444;-82
2023/01/26 11:05:06;;;;;;;48.40;43.60;;;;;;;0.46;86.55;98178.27;108851;1297;22234;-82
2023/01/26 11:07:39;;;;;;;45.40;41.00;;;;;;;0.44;86.32;98178.83;108987;1297;22262;-83
2023/01/26 11:10:18;;;;;;;43.80;39.90;;;;;;;0.49;86.46;98176.32;108845;1297;23151;-82
2023/01/26 11:12:47;;;;;;;51.20;46.70;;;;;;;0.52;86.54;98176.36;108822;1297;22880;-82
2023/01/26 11:15:23;;;;;;;50.80;46.20;;;;;;;0.57;86.83;98172.19;108831;1297;22321;-81
2023/01/26 11:18:00;;;;;;;47.80;43.60;;;;;;;0.62;86.61;98171.80;108818;1297;22246;-81
2023/01/26 11:20:46;;;;;;;47.90;43.30;;;;;;;0.64;86.70;98172.91;108861;1297;22225;-82
2023/01/26 11:23:40;;;;;;;49.40;44.70;;;;;;;0.64;86.85;98171.55;108852;1297;22247;-86
2023/01/26 11:26:46;;;;;;;49.20;44.80;;;;;;;0.64;86.41;98166.34;108672;1297;23106;-80
2023/01/26 11:29:31;;;;;;;44.30;40.20;;;;;;;0.60;86.65;98160.92;107999;1304;22326;-82
2023/01/26 11:32:11;;;;;;;40.60;36.90;;;;;;;0.66;86.48;98159.99;107862;1304;22319;-81
2023/01/26 11:35:07;;;;;;;43.40;39.50;;;;;;;0.69;86.46;98154.45;107829;1304;182883;-85
2023/01/26 11:37:40;;;;;;;;;;;;;;;0.74;86.55;98148.69;108020;1304;22520;-85
2023/01/26 11:40:25;;;;;;;46.40;42.10;;;;;;;0.76;86.94;98143.80;108011;1304;22284;-87
2023/01/26 11:43:20;;;;;;;51.80;47.00;;;;;;;0.77;86.91;98133.27;107956;1304;22267;-86
2023/01/26 11:46:14;;;;;;;;;;;;;;;0.77;86.10;98133.00;108000;1304;22338;-84
2023/01/26 11:49:06;;;;;;;50.30;45.60;;;;;;;0.69;86.32;98124.90;107982;1300;22295;-83
2023/01/26 11:51:49;;;;;;;48.60;44.00;;;;;;;0.69;86.27;98124.48;107953;1305;22354;-84
2023/01/26 11:54:35;;;;;;;45.80;41.50;;;;;;;0.74;86.59;98121.05;107866;1305;22525;-81
2023/01/26 11:57:37;;;;;;;47.20;42.70;;;;;;;0.81;86.38;98114.10;107873;1306;22194;-84
2023/01/26 12:00:19;;;;;;;53.10;48.30;;;;;;;0.83;86.42;98110.74;107683;1305;23217;-81
2023/01/26 12:03:11;;;;;;;47.90;43.60;;;;;;;0.86;86.44;98108.98;107974;1297;22276;-82
2023/01/26 12:05:42;;;;;;;49.80;45.40;;;;;;;0.96;86.72;98102.77;108848;1297;22255;-82
2023/01/26 12:08:20;;;;;;;49.20;44.30;;;;;;;1.07;86.51;98099.77;108972;1297;23053;-82
2023/01/26 12:11:21;;;;;;;44.60;40.30;;;;;;;1.14;86.36;98098.75;108775;1297;22244;-82
2023/01/26 12:14:08;;;;;;;45.30;41.30;;;;;;;1.26;86.48;98094.61;109008;1297;22254;-82
2023/01/26 12:16:52;;;;;;;46.30;41.80;;;;;;;1.38;86.20;98092.24;108851;1297;22249;-82
2023/01/26 12:19:40;;;;;;;47.10;42.90;;;;;;;1.46;86.24;98093.79;108859;1297;22898;-81
2023/01/26 12:22:24;;;;;;;52.50;47.30;;;;;;;1.50;86.35;98092.33;108828;1297;22220;-81
2023/01/26 12:25:14;;;;;;;111.00;92.60;;;;;;;1.48;86.00;98095.85;108857;1297;22267;-82
2023/01/26 12:28:06;;;;;;;57.90;52.80;;;;;;;1.41;86.18;98091.63;108850;1297;22885;-82